createdAt,value
2018-09-04T00:00:52.961Z,50.80
2018-09-04T00:03:21.245Z,54.93
2018-09-04T00:05:49.533Z,60.17
2018-09-04T00:08:17.894Z,58.00
2018-09-04T00:10:46.233Z,53.50
2018-09-04T00:13:14.552Z,49.07
2018-09-04T00:15:42.867Z,46.07
2018-09-04T00:18:11.163Z,49.23
2018-09-04T00:20:39.466Z,45.27
2018-09-04T00:23:07.787Z,41.57
2018-09-04T00:25:36.088Z,45.60
2018-09-04T00:28:04.419Z,82.47
2018-09-04T00:30:32.736Z,72.57
2018-09-04T00:33:01.034Z,96.40
2018-09-04T00:35:29.391Z,75.00
2018-09-04T00:37:57.747Z,114.50
2018-09-04T00:40:26.060Z,121.60
2018-09-04T00:42:54.329Z,77.20
2018-09-04T00:45:22.647Z,67.20
2018-09-04T00:47:50.924Z,67.10
2018-09-04T00:50:19.256Z,68.10
2018-09-04T00:52:47.606Z,63.63
2018-09-04T00:55:15.882Z,56.00
2018-09-04T00:57:44.218Z,56.37
2018-09-04T01:00:12.514Z,57.80
2018-09-04T01:02:40.816Z,55.63
2018-09-04T01:05:09.110Z,54.60
2018-09-04T01:07:37.424Z,50.57
2018-09-04T01:10:05.756Z,48.70
2018-09-04T01:12:34.053Z,76.10
2018-09-04T01:15:02.349Z,72.93
2018-09-04T01:17:30.643Z,82.40
2018-09-04T01:19:59.028Z,83.80
2018-09-04T01:22:27.312Z,71.73
2018-09-04T01:24:55.664Z,60.83
2018-09-04T01:27:24.062Z,57.27
2018-09-04T01:29:52.514Z,54.33
2018-09-04T01:32:20.842Z,52.23
2018-09-04T01:34:49.180Z,49.30
2018-09-04T01:37:17.481Z,46.90
2018-09-04T01:39:45.788Z,45.60
2018-09-04T01:42:14.121Z,45.07
2018-09-04T01:44:42.447Z,43.47
2018-09-04T01:47:10.752Z,45.97
2018-09-04T01:49:39.087Z,43.50
2018-09-04T01:52:07.768Z,85.93
2018-09-04T01:54:36.040Z,90.70
2018-09-04T01:57:04.339Z,83.37
2018-09-04T01:59:32.664Z,78.03
2018-09-04T02:02:01.061Z,69.57
2018-09-04T02:04:29.350Z,76.43
2018-09-04T02:06:57.916Z,70.57
2018-09-04T02:09:26.990Z,65.90
2018-09-04T02:11:55.613Z,60.03
2018-09-04T02:14:23.933Z,60.40
2018-09-04T02:16:52.706Z,55.93
2018-09-04T02:19:21.253Z,55.90
2018-09-04T02:21:50.032Z,54.47
2018-09-04T02:24:19.424Z,54.30
2018-09-04T02:26:47.744Z,55.27
2018-09-04T02:29:16.084Z,47.60
2018-09-04T02:31:44.403Z,50.60
2018-09-04T02:34:12.752Z,47.10
2018-09-04T02:36:41.070Z,49.23
2018-09-04T02:39:10.867Z,51.90
2018-09-04T02:41:39.413Z,46.27
2018-09-04T02:44:07.984Z,45.30
2018-09-04T02:46:37.032Z,44.87
2018-09-04T02:49:05.944Z,52.07
2018-09-04T02:51:34.240Z,46.50
2018-09-04T02:54:02.568Z,45.40
2018-09-04T02:56:30.900Z,44.13
2018-09-04T02:58:59.578Z,44.33
2018-09-04T03:01:28.319Z,45.83
2018-09-04T03:03:56.682Z,46.27
2018-09-04T03:06:25.031Z,44.13
2018-09-04T03:08:53.359Z,40.80
2018-09-04T03:11:21.864Z,43.40
2018-09-04T03:13:50.224Z,42.77
2018-09-04T03:16:18.609Z,39.60
2018-09-04T03:18:47.007Z,42.10
2018-09-04T03:21:15.362Z,38.33
2018-09-04T03:23:43.669Z,42.07
2018-09-04T03:26:12.070Z,40.67
2018-09-04T03:28:40.441Z,41.17
2018-09-04T03:31:08.803Z,39.67
2018-09-04T03:33:37.189Z,36.80
2018-09-04T03:36:05.779Z,37.63
2018-09-04T03:38:34.137Z,38.13
2018-09-04T03:41:02.473Z,37.73
2018-09-04T03:43:30.813Z,38.67
2018-09-04T03:45:59.126Z,37.73
2018-09-04T03:48:27.546Z,36.33
2018-09-04T03:50:55.903Z,35.97
2018-09-04T03:53:24.256Z,35.67
2018-09-04T03:55:52.596Z,38.00
2018-09-04T03:58:20.966Z,34.43
2018-09-04T04:00:49.416Z,40.53
2018-09-04T04:03:17.759Z,35.67
2018-09-04T04:05:46.179Z,36.37
2018-09-04T04:08:14.575Z,36.87
2018-09-04T04:10:42.915Z,37.63
2018-09-04T04:13:11.227Z,38.17
2018-09-04T04:15:39.607Z,35.30
2018-09-04T04:18:08.173Z,35.37
2018-09-04T04:20:36.633Z,35.60
2018-09-04T04:23:05.155Z,37.30
2018-09-04T04:25:33.559Z,34.77
2018-09-04T04:28:02.006Z,35.73
2018-09-04T04:30:30.352Z,34.23
2018-09-04T04:32:58.898Z,36.47
2018-09-04T04:35:27.245Z,32.30
2018-09-04T04:37:55.584Z,36.87
2018-09-04T04:40:23.998Z,35.20
2018-09-04T04:42:52.380Z,36.50
2018-09-04T04:45:20.739Z,35.90
2018-09-04T04:47:49.372Z,30.90
2018-09-04T04:50:18.327Z,28.93
2018-09-04T04:52:46.634Z,34.13
2018-09-04T04:55:14.991Z,34.33
2018-09-04T04:57:43.312Z,30.17
2018-09-04T05:00:11.799Z,33.10
2018-09-04T05:02:40.148Z,32.30
2018-09-04T05:05:08.559Z,32.97
2018-09-04T05:07:37.168Z,31.07
2018-09-04T05:10:06.088Z,33.83
2018-09-04T05:12:34.413Z,27.87
2018-09-04T05:15:02.788Z,29.93
2018-09-04T05:17:31.188Z,30.00
2018-09-04T05:19:59.540Z,27.47
2018-09-04T05:22:27.986Z,31.40
2018-09-04T05:24:56.441Z,29.13
2018-09-04T05:27:24.889Z,30.77
2018-09-04T05:29:53.632Z,28.27
2018-09-04T05:32:31.079Z,28.57
2018-09-04T05:34:59.383Z,30.57
2018-09-04T05:37:27.838Z,30.37
2018-09-04T05:39:56.222Z,28.40
2018-09-04T05:42:28.533Z,29.23
2018-09-04T05:44:56.846Z,28.23
2018-09-04T05:47:28.446Z,26.50
2018-09-04T05:49:56.811Z,25.20
2018-09-04T05:52:25.153Z,24.03
2018-09-04T05:54:53.554Z,26.83
2018-09-04T05:57:21.891Z,22.50
2018-09-04T05:59:50.215Z,24.03
2018-09-04T06:02:18.504Z,23.77
2018-09-04T06:04:46.972Z,23.70
2018-09-04T06:07:15.325Z,25.53
2018-09-04T06:09:43.622Z,22.87
2018-09-04T06:12:12.011Z,23.77
2018-09-04T06:14:40.319Z,29.67
2018-09-04T06:17:08.746Z,26.57
2018-09-04T06:19:37.098Z,27.40
2018-09-04T06:22:05.520Z,23.27
2018-09-04T06:24:33.827Z,26.73
2018-09-04T06:27:02.228Z,25.83
2018-09-04T06:29:30.584Z,24.23
2018-09-04T06:31:58.979Z,24.23
2018-09-04T06:34:27.310Z,28.37
2018-09-04T06:36:55.653Z,34.07
2018-09-04T06:39:24.203Z,41.13
2018-09-04T06:41:52.586Z,46.60
2018-09-04T06:44:21.357Z,44.27
2018-09-04T06:46:49.722Z,41.83
2018-09-04T06:49:18.158Z,39.70
2018-09-04T06:51:46.490Z,33.67
2018-09-04T06:54:15.045Z,35.73
2018-09-04T06:56:43.505Z,37.17
2018-09-04T06:59:11.881Z,33.27
2018-09-04T07:01:40.388Z,32.50
2018-09-04T07:04:08.790Z,37.10
2018-09-04T07:06:37.095Z,32.00
2018-09-04T07:09:08.242Z,33.13
2018-09-04T07:11:36.603Z,42.00
2018-09-04T07:14:04.917Z,49.27
2018-09-04T07:16:33.277Z,46.13
2018-09-04T07:19:01.654Z,49.40
2018-09-04T07:21:33.077Z,45.30
2018-09-04T07:24:01.505Z,44.70
2018-09-04T07:26:29.773Z,41.47
2018-09-04T07:28:58.430Z,42.03
2018-09-04T07:31:26.723Z,38.17
2018-09-04T07:33:55.043Z,38.83
2018-09-04T07:36:23.447Z,38.67
2018-09-04T07:38:51.717Z,42.13
2018-09-04T07:41:19.995Z,49.73
2018-09-04T07:43:48.308Z,49.20
2018-09-04T07:46:16.604Z,52.73
2018-09-04T07:48:44.932Z,43.80
2018-09-04T07:51:13.235Z,47.23
2018-09-04T07:53:45.663Z,47.23
2018-09-04T07:56:14.469Z,44.77
2018-09-04T07:58:42.857Z,49.10
2018-09-04T08:01:11.183Z,43.63
2018-09-04T08:03:39.814Z,81.23
2018-09-04T08:06:08.184Z,119.00
2018-09-04T08:08:36.903Z,106.63
2018-09-04T08:11:05.588Z,113.27
2018-09-04T08:13:33.892Z,90.33
2018-09-04T08:16:02.207Z,116.10
2018-09-04T08:18:30.621Z,98.80
2018-09-04T08:20:58.960Z,87.40
2018-09-04T08:23:27.313Z,94.80
2018-09-04T08:25:55.669Z,113.00
2018-09-04T08:28:24.008Z,102.83
2018-09-04T08:30:52.328Z,121.90
2018-09-04T08:33:20.861Z,126.10
2018-09-04T08:35:49.123Z,114.77
2018-09-04T08:38:17.454Z,132.97
2018-09-04T08:40:45.761Z,137.37
2018-09-04T08:43:14.131Z,155.00
2018-09-04T08:45:42.416Z,140.07
2018-09-04T08:48:16.184Z,131.90
2018-09-04T08:50:44.708Z,111.57
2018-09-04T08:53:12.940Z,105.10
2018-09-04T08:55:41.240Z,111.93
2018-09-04T08:58:09.577Z,91.47
2018-09-04T09:00:38.031Z,95.53
2018-09-04T09:03:06.625Z,89.93
2018-09-04T09:05:35.012Z,93.23
2018-09-04T09:08:03.327Z,104.00
2018-09-04T09:10:31.643Z,105.10
2018-09-04T09:12:59.930Z,127.03
2018-09-04T09:15:28.230Z,108.37
2018-09-04T09:17:56.539Z,97.20
2018-09-04T09:20:24.887Z,102.90
2018-09-04T09:22:53.268Z,95.30
2018-09-04T09:25:21.525Z,92.40
2018-09-04T09:27:49.853Z,109.47
2018-09-04T09:30:18.206Z,100.27
2018-09-04T09:32:46.564Z,106.53
2018-09-04T09:35:15.051Z,110.83
2018-09-04T09:37:43.334Z,102.30
2018-09-04T09:40:11.683Z,95.33
2018-09-04T09:42:40.012Z,90.97
2018-09-04T09:45:08.403Z,83.90
2018-09-04T09:47:40.912Z,84.53
2018-09-04T09:50:09.235Z,78.87
2018-09-04T09:52:37.736Z,71.83
2018-09-04T09:55:06.643Z,70.03
2018-09-04T09:57:34.959Z,67.40
2018-09-04T10:00:03.296Z,70.53
2018-09-04T10:02:37.157Z,71.13
2018-09-04T10:05:05.602Z,68.37
2018-09-04T10:07:33.979Z,67.20
2018-09-04T10:10:02.312Z,66.20
2018-09-04T10:12:30.638Z,59.83
2018-09-04T10:14:58.909Z,66.07
2018-09-04T10:17:27.252Z,58.60
2018-09-04T10:19:55.613Z,64.83
2018-09-04T10:22:24.396Z,75.00
2018-09-04T10:24:52.694Z,71.37
2018-09-04T10:27:21.028Z,88.20
2018-09-04T10:29:49.411Z,83.43
2018-09-04T10:32:17.818Z,74.80
2018-09-04T10:34:46.160Z,69.03
2018-09-04T10:37:14.514Z,65.37
2018-09-04T10:39:48.359Z,60.43
2018-09-04T10:42:25.000Z,57.40
2018-09-04T10:44:53.313Z,59.73
2018-09-04T10:47:21.624Z,56.47
2018-09-04T10:49:49.928Z,82.13
2018-09-04T10:52:18.264Z,70.57
2018-09-04T10:54:46.702Z,71.20
2018-09-04T10:57:15.039Z,76.13
2018-09-04T10:59:43.319Z,83.87
2018-09-04T11:02:11.640Z,80.37
2018-09-04T11:04:39.985Z,74.53
2018-09-04T11:07:08.323Z,65.60
2018-09-04T11:09:36.816Z,68.90
2018-09-04T11:12:05.010Z,64.03
2018-09-04T11:14:33.363Z,65.30
2018-09-04T11:17:01.724Z,58.33
2018-09-04T11:19:30.011Z,64.57
2018-09-04T11:21:58.324Z,80.03
2018-09-04T11:24:26.625Z,85.20
2018-09-04T11:26:55.003Z,74.93
2018-09-04T11:29:23.338Z,65.87
2018-09-04T11:31:51.692Z,64.90
2018-09-04T11:34:20.005Z,61.73
2018-09-04T11:36:48.276Z,81.27
2018-09-04T11:39:16.595Z,93.93
2018-09-04T11:41:44.879Z,76.60
2018-09-04T11:44:13.210Z,81.03
2018-09-04T11:46:41.505Z,63.13
2018-09-04T11:49:09.850Z,59.63
2018-09-04T11:51:38.186Z,63.20
2018-09-04T11:54:06.696Z,103.07
2018-09-04T11:56:40.567Z,87.90
2018-09-04T11:59:09.231Z,94.10
2018-09-04T12:01:40.007Z,89.87
2018-09-04T12:04:08.303Z,81.97
2018-09-04T12:06:36.645Z,71.20
2018-09-04T12:09:06.183Z,61.53
2018-09-04T12:11:34.548Z,62.37
2018-09-04T12:14:02.817Z,59.37
2018-09-04T12:16:31.104Z,59.70
2018-09-04T12:18:59.419Z,74.33
2018-09-04T12:21:27.728Z,67.70
2018-09-04T12:23:56.039Z,89.13
2018-09-04T12:26:24.388Z,66.47
2018-09-04T12:28:52.691Z,61.83
2018-09-04T12:31:20.997Z,65.10
2018-09-04T12:33:49.404Z,64.33
2018-09-04T12:36:17.654Z,61.47
2018-09-04T12:38:46.018Z,59.97
2018-09-04T12:41:14.328Z,59.47
2018-09-04T12:43:42.951Z,57.57
2018-09-04T12:46:11.312Z,54.10
2018-09-04T12:48:44.040Z,51.30
2018-09-04T12:51:12.232Z,54.10
2018-09-04T12:53:40.596Z,49.67
2018-09-04T12:56:08.927Z,47.63
2018-09-04T12:58:37.255Z,82.63
2018-09-04T13:01:06.213Z,67.37
2018-09-04T13:03:34.579Z,58.87
2018-09-04T13:06:02.872Z,57.33
2018-09-04T13:08:32.903Z,52.33
2018-09-04T13:11:01.182Z,49.97
2018-09-04T13:13:29.854Z,50.03
2018-09-04T13:15:59.655Z,45.93
2018-09-04T13:18:28.663Z,48.13
2018-09-04T13:21:01.126Z,72.17
2018-09-04T13:23:29.758Z,63.33
2018-09-04T13:25:58.096Z,60.60
2018-09-04T13:28:26.879Z,83.63
2018-09-04T13:30:55.164Z,67.67
2018-09-04T13:33:23.439Z,58.40
2018-09-04T13:35:51.723Z,55.47
2018-09-04T13:38:20.034Z,47.20
2018-09-04T13:40:48.358Z,46.40
2018-09-04T13:43:16.617Z,44.17
2018-09-04T13:45:44.995Z,48.53
2018-09-04T13:48:13.260Z,42.80
2018-09-04T13:50:42.798Z,42.93
2018-09-04T13:53:11.236Z,47.03
2018-09-04T13:55:39.505Z,46.70
2018-09-04T13:58:07.800Z,44.87
2018-09-04T14:00:36.104Z,63.30
2018-09-04T14:03:04.459Z,80.87
2018-09-04T14:05:32.756Z,69.43
2018-09-04T14:08:01.095Z,55.40
2018-09-04T14:10:29.379Z,55.73
2018-09-04T14:12:57.725Z,51.60
2018-09-04T14:15:26.018Z,46.77
2018-09-04T14:17:54.306Z,52.77
2018-09-04T14:20:22.638Z,48.77
2018-09-04T14:22:50.922Z,47.80
2018-09-04T14:25:19.238Z,45.33
2018-09-04T14:27:47.523Z,40.70
2018-09-04T14:30:16.243Z,44.23
2018-09-04T14:32:44.180Z,43.27
2018-09-04T14:35:12.489Z,39.67
2018-09-04T14:37:40.827Z,40.77
2018-09-04T14:40:09.095Z,38.80
2018-09-04T14:42:37.477Z,38.20
2018-09-04T14:45:05.751Z,35.70
2018-09-04T14:47:34.041Z,37.97
2018-09-04T14:50:02.553Z,35.10
2018-09-04T14:52:30.849Z,47.07
2018-09-04T14:54:59.154Z,57.63
2018-09-04T14:57:27.442Z,45.53
2018-09-04T14:59:55.745Z,45.67
2018-09-04T15:02:24.540Z,37.23
2018-09-04T15:04:52.839Z,40.17
2018-09-04T15:07:21.372Z,41.07
2018-09-04T15:09:49.679Z,40.40
2018-09-04T15:12:18.010Z,38.60
2018-09-04T15:14:46.327Z,41.23
2018-09-04T15:17:14.607Z,40.03
2018-09-04T15:19:42.927Z,51.30
2018-09-04T15:22:11.236Z,73.57
2018-09-04T15:24:39.591Z,62.67
2018-09-04T15:27:07.916Z,50.50
2018-09-04T15:29:36.254Z,49.60
2018-09-04T15:32:04.633Z,42.03
2018-09-04T15:34:32.874Z,41.93
2018-09-04T15:37:01.219Z,40.80
2018-09-04T15:39:29.523Z,40.57
2018-09-04T15:41:57.888Z,38.97
2018-09-04T15:44:26.205Z,36.80
2018-09-04T15:46:54.519Z,41.10
2018-09-04T15:49:28.135Z,38.80
2018-09-04T15:51:56.432Z,36.53
2018-09-04T15:54:24.740Z,33.07
2018-09-04T15:56:53.127Z,33.37
2018-09-04T15:59:21.425Z,37.60
2018-09-04T16:01:49.730Z,32.43
2018-09-04T16:04:18.266Z,31.97
2018-09-04T16:06:46.530Z,31.20
2018-09-04T16:09:14.818Z,29.77
2018-09-04T16:11:43.104Z,30.90
2018-09-04T16:14:11.392Z,33.13
2018-09-04T16:16:39.710Z,27.73
2018-09-04T16:19:08.012Z,24.53
2018-09-04T16:21:36.298Z,33.87
2018-09-04T16:24:04.577Z,24.30
2018-09-04T16:26:32.903Z,27.80
2018-09-04T16:29:01.172Z,24.47
2018-09-04T16:31:29.634Z,25.27
2018-09-04T16:33:57.913Z,29.03
2018-09-04T16:36:26.477Z,23.63
2018-09-04T16:38:54.829Z,26.07
2018-09-04T16:41:23.193Z,21.87
2018-09-04T16:43:51.499Z,25.60
2018-09-04T16:46:19.788Z,32.37
2018-09-04T16:48:48.103Z,28.90
2018-09-04T16:51:16.384Z,35.20
2018-09-04T16:53:44.675Z,31.73
2018-09-04T16:56:12.967Z,27.37
2018-09-04T16:58:41.288Z,26.90
2018-09-04T17:01:09.643Z,30.23
2018-09-04T17:03:37.960Z,28.17
2018-09-04T17:06:06.263Z,52.70
2018-09-04T17:08:34.559Z,52.80
2018-09-04T17:11:02.871Z,33.97
2018-09-04T17:13:31.243Z,44.67
2018-09-04T17:15:59.543Z,43.17
2018-09-04T17:18:27.930Z,45.33
2018-09-04T17:20:56.793Z,46.37
2018-09-04T17:23:25.202Z,39.27
2018-09-04T17:25:53.738Z,42.53
2018-09-04T17:28:22.076Z,41.57
2018-09-04T17:30:50.405Z,43.30
2018-09-04T17:33:19.037Z,38.90
2018-09-04T17:35:47.508Z,39.20
2018-09-04T17:38:15.863Z,38.97
2018-09-04T17:40:44.136Z,36.57
2018-09-04T17:43:12.529Z,36.20
2018-09-04T17:45:40.926Z,40.03
2018-09-04T17:48:09.240Z,36.07
2018-09-04T17:50:37.543Z,34.83
2018-09-04T17:53:05.944Z,34.67
2018-09-04T17:55:34.255Z,33.90
2018-09-04T17:58:02.545Z,35.63
2018-09-04T18:00:30.897Z,37.10
2018-09-04T18:02:59.167Z,37.17
2018-09-04T18:05:27.481Z,42.13
2018-09-04T18:07:55.869Z,36.17
2018-09-04T18:10:24.250Z,35.57
2018-09-04T18:12:52.607Z,34.57
2018-09-04T18:15:20.919Z,33.00
2018-09-04T18:17:49.188Z,36.40
2018-09-04T18:20:17.704Z,34.77
2018-09-04T18:22:46.141Z,31.40
2018-09-04T18:25:14.448Z,35.37
2018-09-04T18:27:43.567Z,33.93
2018-09-04T18:30:12.209Z,30.67
2018-09-04T18:32:41.036Z,36.97
2018-09-04T18:35:09.328Z,35.13
2018-09-04T18:37:38.016Z,30.83
2018-09-04T18:40:06.307Z,32.80
2018-09-04T18:42:34.623Z,31.30
2018-09-04T18:45:02.900Z,30.50
2018-09-04T18:47:31.307Z,26.80
2018-09-04T18:49:59.603Z,27.33
2018-09-04T18:52:27.919Z,25.93
2018-09-04T18:54:56.261Z,33.97
2018-09-04T18:57:24.602Z,34.30
2018-09-04T18:59:52.875Z,61.50
2018-09-04T19:02:21.185Z,57.47
2018-09-04T19:04:49.499Z,51.83
2018-09-04T19:07:17.795Z,49.27
2018-09-04T19:09:46.251Z,52.33
2018-09-04T19:12:14.602Z,50.10
2018-09-04T19:14:43.074Z,49.80
2018-09-04T19:17:12.513Z,49.30
2018-09-04T19:19:41.115Z,48.83
2018-09-04T19:22:09.477Z,51.17
2018-09-04T19:24:37.908Z,46.67
2018-09-04T19:27:06.332Z,45.33
2018-09-04T19:29:34.646Z,59.37
2018-09-04T19:32:02.954Z,73.93
2018-09-04T19:34:31.441Z,71.17
2018-09-04T19:36:59.746Z,66.37
2018-09-04T19:39:28.091Z,62.17
2018-09-04T19:41:56.412Z,64.27
2018-09-04T19:44:24.803Z,61.67
2018-09-04T19:46:53.317Z,58.33
2018-09-04T19:49:22.086Z,57.40
2018-09-04T19:51:50.830Z,56.63
2018-09-04T19:54:19.523Z,56.63
2018-09-04T19:56:47.878Z,61.50
2018-09-04T19:59:16.215Z,73.40
2018-09-04T20:01:45.049Z,72.23
2018-09-04T20:04:13.664Z,64.53
2018-09-04T20:06:42.165Z,68.80
2018-09-04T20:09:10.766Z,68.30
2018-09-04T20:11:39.291Z,66.97
2018-09-04T20:14:07.728Z,64.37
2018-09-04T20:16:36.256Z,70.73
2018-09-04T20:19:04.797Z,65.77
2018-09-04T20:21:33.103Z,112.67
2018-09-04T20:24:01.413Z,79.87
2018-09-04T20:26:29.714Z,90.73
2018-09-04T20:28:58.004Z,83.27
2018-09-04T20:31:26.303Z,79.97
2018-09-04T20:33:54.607Z,77.33
2018-09-04T20:36:22.902Z,80.77
2018-09-04T20:38:51.209Z,77.53
2018-09-04T20:41:19.736Z,69.77
2018-09-04T20:43:48.039Z,74.10
2018-09-04T20:46:16.664Z,73.33
2018-09-04T20:48:45.097Z,61.27
2018-09-04T20:51:13.388Z,56.70
2018-09-04T20:53:41.689Z,53.93
2018-09-04T20:56:09.964Z,51.60
2018-09-04T20:58:49.958Z,50.50
2018-09-04T21:01:29.782Z,46.90
2018-09-04T21:04:09.627Z,64.07
2018-09-04T21:06:48.239Z,69.77
2018-09-04T21:09:27.610Z,65.30
2018-09-04T21:11:56.052Z,76.37
2018-09-04T21:14:24.804Z,66.67
2018-09-04T21:16:53.670Z,65.27
2018-09-04T21:19:22.368Z,61.77
2018-09-04T21:21:50.789Z,62.00
2018-09-04T21:24:19.795Z,58.83
2018-09-04T21:26:48.561Z,54.53
2018-09-04T21:29:16.838Z,50.30
2018-09-04T21:31:45.263Z,57.93
2018-09-04T21:34:13.566Z,92.40
2018-09-04T21:36:42.075Z,84.63
2018-09-04T21:39:10.820Z,86.73
2018-09-04T21:41:39.705Z,77.90
2018-09-04T21:44:08.314Z,73.07
2018-09-04T21:46:36.658Z,67.17
2018-09-04T21:49:05.184Z,67.77
2018-09-04T21:51:33.573Z,65.20
2018-09-04T21:54:01.956Z,60.77
2018-09-04T21:56:30.418Z,65.43
2018-09-04T21:58:58.829Z,120.40
2018-09-04T22:01:27.309Z,91.63
2018-09-04T22:03:55.613Z,112.23
2018-09-04T22:06:23.980Z,106.33
2018-09-04T22:08:52.779Z,103.87
2018-09-04T22:11:21.454Z,99.50
2018-09-04T22:13:49.791Z,91.03
2018-09-04T22:16:18.448Z,82.30
2018-09-04T22:18:47.106Z,76.77
2018-09-04T22:21:15.444Z,71.67
2018-09-04T22:23:43.730Z,67.37
2018-09-04T22:26:12.037Z,64.13
2018-09-04T22:28:40.311Z,60.83
2018-09-04T22:31:08.622Z,60.87
2018-09-04T22:33:36.925Z,62.00
2018-09-04T22:36:43.340Z,57.20
2018-09-04T22:39:11.643Z,55.83
2018-09-04T22:41:39.987Z,60.50
2018-09-04T22:44:08.283Z,61.70
2018-09-04T22:46:36.577Z,57.03
2018-09-04T22:49:05.122Z,56.27
2018-09-04T22:51:36.268Z,60.10
2018-09-04T22:54:05.682Z,100.90
2018-09-04T22:56:34.264Z,112.50
2018-09-04T22:59:02.548Z,109.10
2018-09-04T23:01:30.827Z,98.57
2018-09-04T23:03:59.126Z,89.70
2018-09-04T23:06:27.415Z,95.27
2018-09-04T23:08:55.691Z,101.37
2018-09-04T23:11:24.107Z,103.03
2018-09-04T23:13:52.395Z,102.97
2018-09-04T23:16:20.675Z,100.47
2018-09-04T23:18:48.974Z,99.70
2018-09-04T23:21:17.231Z,99.47
2018-09-04T23:23:45.491Z,95.87
2018-09-04T23:26:13.784Z,92.57
2018-09-04T23:28:42.067Z,95.17
2018-09-04T23:31:10.390Z,89.93
2018-09-04T23:33:38.711Z,91.80
2018-09-04T23:36:07.339Z,89.43
2018-09-04T23:38:35.667Z,108.43
2018-09-04T23:41:03.972Z,92.50
2018-09-04T23:43:32.251Z,103.67
2018-09-04T23:46:00.540Z,113.53
2018-09-04T23:48:28.832Z,119.37
2018-09-04T23:50:57.383Z,112.23
2018-09-04T23:53:25.666Z,109.27
2018-09-04T23:55:53.930Z,113.80
2018-09-04T23:58:22.225Z,107.70
